sensor_id;sensor_type;location;lat;lon;timestamp;temperature;humidity
212;DHT22;16228;48.800;9.002;2023-04-08T00:01:15;8.20;96.90
212;DHT22;16228;48.800;9.002;2023-04-08T00:03:42;8.20;96.90
212;DHT22;16228;48.800;9.002;2023-04-08T00:06:09;8.20;96.90
212;DHT22;16228;48.800;9.002;2023-04-08T00:08:37;8.20;96.90
212;DHT22;16228;48.800;9.002;2023-04-08T00:11:06;8.30;96.90
212;DHT22;16228;48.800;9.002;2023-04-08T00:13:33;8.20;96.90
212;DHT22;16228;48.800;9.002;2023-04-08T00:16:00;8.20;96.90
212;DHT22;16228;48.800;9.002;2023-04-08T00:18:26;8.30;96.90
212;DHT22;16228;48.800;9.002;2023-04-08T00:20:54;8.30;96.90
212;DHT22;16228;48.800;9.002;2023-04-08T00:23:21;8.30;96.90
212;DHT22;16228;48.800;9.002;2023-04-08T00:25:50;8.30;96.90
212;DHT22;16228;48.800;9.002;2023-04-08T00:28:17;8.30;96.90
212;DHT22;16228;48.800;9.002;2023-04-08T00:30:43;8.30;96.90
212;DHT22;16228;48.800;9.002;2023-04-08T00:33:10;8.30;96.90
212;DHT22;16228;48.800;9.002;2023-04-08T00:35:37;8.30;96.90
212;DHT22;16228;48.800;9.002;2023-04-08T00:38:04;8.30;96.90
212;DHT22;16228;48.800;9.002;2023-04-08T00:40:33;8.30;96.90
212;DHT22;16228;48.800;9.002;2023-04-08T00:43:01;8.30;96.90
212;DHT22;16228;48.800;9.002;2023-04-08T00:45:28;8.40;96.90
212;DHT22;16228;48.800;9.002;2023-04-08T00:47:56;8.40;96.90
212;DHT22;16228;48.800;9.002;2023-04-08T00:50:23;8.30;96.90
212;DHT22;16228;48.800;9.002;2023-04-08T00:52:50;8.30;96.90
212;DHT22;16228;48.800;9.002;2023-04-08T00:55:17;8.30;96.90
212;DHT22;16228;48.800;9.002;2023-04-08T00:57:44;8.30;96.90
212;DHT22;16228;48.800;9.002;2023-04-08T01:00:14;8.30;96.90
212;DHT22;16228;48.800;9.002;2023-04-08T01:02:45;8.30;96.90
212;DHT22;16228;48.800;9.002;2023-04-08T01:05:18;8.30;96.90
212;DHT22;16228;48.800;9.002;2023-04-08T01:07:47;8.30;96.90
212;DHT22;16228;48.800;9.002;2023-04-08T01:10:18;8.20;96.90
212;DHT22;16228;48.800;9.002;2023-04-08T01:12:49;8.20;96.90
212;DHT22;16228;48.800;9.002;2023-04-08T01:15:19;8.20;96.90
212;DHT22;16228;48.800;9.002;2023-04-08T01:17:47;8.30;96.90
212;DHT22;16228;48.800;9.002;2023-04-08T01:20:16;8.30;96.90
212;DHT22;16228;48.800;9.002;2023-04-08T01:22:57;8.30;96.90
212;DHT22;16228;48.800;9.002;2023-04-08T01:25:30;8.30;96.90
212;DHT22;16228;48.800;9.002;2023-04-08T01:28:00;8.30;96.90
212;DHT22;16228;48.800;9.002;2023-04-08T01:30:29;8.30;96.90
212;DHT22;16228;48.800;9.002;2023-04-08T01:32:58;8.30;96.90
212;DHT22;16228;48.800;9.002;2023-04-08T01:35:27;8.30;96.90
212;DHT22;16228;48.800;9.002;2023-04-08T01:37:56;8.30;96.90
212;DHT22;16228;48.800;9.002;2023-04-08T01:40:24;8.30;96.90
212;DHT22;16228;48.800;9.002;2023-04-08T01:42:54;8.30;96.90
212;DHT22;16228;48.800;9.002;2023-04-08T01:45:24;8.30;96.90
212;DHT22;16228;48.800;9.002;2023-04-08T01:47:52;8.30;96.90
212;DHT22;16228;48.800;9.002;2023-04-08T01:50:20;8.20;96.90
212;DHT22;16228;48.800;9.002;2023-04-08T01:52:48;8.20;96.90
212;DHT22;16228;48.800;9.002;2023-04-08T01:55:18;8.20;96.90
212;DHT22;16228;48.800;9.002;2023-04-08T01:57:48;8.20;96.90
212;DHT22;16228;48.800;9.002;2023-04-08T02:00:19;8.20;96.90
212;DHT22;16228;48.800;9.002;2023-04-08T02:02:48;8.20;96.90
212;DHT22;16228;48.800;9.002;2023-04-08T02:05:16;8.20;96.90
212;DHT22;16228;48.800;9.002;2023-04-08T02:07:43;8.20;96.90
212;DHT22;16228;48.800;9.002;2023-04-08T02:10:11;8.20;96.90
212;DHT22;16228;48.800;9.002;2023-04-08T02:12:38;8.20;96.90
212;DHT22;16228;48.800;9.002;2023-04-08T02:15:06;8.20;96.90
212;DHT22;16228;48.800;9.002;2023-04-08T02:17:38;8.20;96.90
212;DHT22;16228;48.800;9.002;2023-04-08T02:20:10;8.10;96.90
212;DHT22;16228;48.800;9.002;2023-04-08T02:22:43;8.10;96.90
212;DHT22;16228;48.800;9.002;2023-04-08T02:25:14;8.00;96.90
212;DHT22;16228;48.800;9.002;2023-04-08T02:27:44;7.90;96.90
212;DHT22;16228;48.800;9.002;2023-04-08T02:30:12;7.70;96.90
212;DHT22;16228;48.800;9.002;2023-04-08T02:32:40;7.70;96.90
212;DHT22;16228;48.800;9.002;2023-04-08T02:35:10;7.50;96.90
212;DHT22;16228;48.800;9.002;2023-04-08T02:37:38;7.30;96.90
212;DHT22;16228;48.800;9.002;2023-04-08T02:40:22;7.20;96.90
212;DHT22;16228;48.800;9.002;2023-04-08T02:42:49;7.10;96.90
212;DHT22;16228;48.800;9.002;2023-04-08T02:45:16;7.00;96.90
212;DHT22;16228;48.800;9.002;2023-04-08T02:47:43;6.90;96.90
212;DHT22;16228;48.800;9.002;2023-04-08T02:50:11;6.80;96.90
212;DHT22;16228;48.800;9.002;2023-04-08T02:52:38;6.70;96.90
212;DHT22;16228;48.800;9.002;2023-04-08T02:55:06;6.70;96.90
212;DHT22;16228;48.800;9.002;2023-04-08T02:57:35;6.70;96.90
212;DHT22;16228;48.800;9.002;2023-04-08T03:00:03;6.70;96.90
212;DHT22;16228;48.800;9.002;2023-04-08T03:02:30;6.80;96.90
212;DHT22;16228;48.800;9.002;2023-04-08T03:04:57;6.80;96.90
212;DHT22;16228;48.800;9.002;2023-04-08T03:07:26;6.80;96.90
212;DHT22;16228;48.800;9.002;2023-04-08T03:09:53;6.90;96.90
212;DHT22;16228;48.800;9.002;2023-04-08T03:12:20;6.90;96.90
212;DHT22;16228;48.800;9.002;2023-04-08T03:14:48;6.90;96.90
212;DHT22;16228;48.800;9.002;2023-04-08T03:17:15;7.00;96.90
212;DHT22;16228;48.800;9.002;2023-04-08T03:19:42;7.00;96.90
212;DHT22;16228;48.800;9.002;2023-04-08T03:22:09;7.00;96.90
212;DHT22;16228;48.800;9.002;2023-04-08T03:24:37;6.90;96.90
212;DHT22;16228;48.800;9.002;2023-04-08T03:27:05;6.90;96.90
212;DHT22;16228;48.800;9.002;2023-04-08T03:29:33;6.90;96.90
212;DHT22;16228;48.800;9.002;2023-04-08T03:32:00;6.90;96.90
212;DHT22;16228;48.800;9.002;2023-04-08T03:34:27;7.00;96.90
212;DHT22;16228;48.800;9.002;2023-04-08T03:36:54;7.00;96.90
212;DHT22;16228;48.800;9.002;2023-04-08T03:39:20;7.10;96.90
212;DHT22;16228;48.800;9.002;2023-04-08T03:41:49;7.10;96.90
212;DHT22;16228;48.800;9.002;2023-04-08T03:44:16;7.10;96.90
212;DHT22;16228;48.800;9.002;2023-04-08T03:46:43;7.10;96.90
212;DHT22;16228;48.800;9.002;2023-04-08T03:49:10;7.10;96.90
212;DHT22;16228;48.800;9.002;2023-04-08T03:51:37;7.10;96.90
212;DHT22;16228;48.800;9.002;2023-04-08T03:54:04;7.00;96.90
212;DHT22;16228;48.800;9.002;2023-04-08T03:56:32;7.00;96.90
212;DHT22;16228;48.800;9.002;2023-04-08T03:59:00;7.00;96.90
212;DHT22;16228;48.800;9.002;2023-04-08T04:01:27;6.90;96.90
212;DHT22;16228;48.800;9.002;2023-04-08T04:03:55;6.90;96.90
212;DHT22;16228;48.800;9.002;2023-04-08T04:06:22;6.90;96.90
212;DHT22;16228;48.800;9.002;2023-04-08T04:08:49;6.90;96.90
212;DHT22;16228;48.800;9.002;2023-04-08T04:11:18;6.90;96.90
212;DHT22;16228;48.800;9.002;2023-04-08T04:13:45;7.00;96.90
212;DHT22;16228;48.800;9.002;2023-04-08T04:16:14;7.10;96.90
212;DHT22;16228;48.800;9.002;2023-04-08T04:18:41;7.10;96.90
212;DHT22;16228;48.800;9.002;2023-04-08T04:21:08;7.10;96.90
212;DHT22;16228;48.800;9.002;2023-04-08T04:23:35;7.10;96.90
212;DHT22;16228;48.800;9.002;2023-04-08T04:26:07;7.10;96.90
212;DHT22;16228;48.800;9.002;2023-04-08T04:28:34;7.20;96.90
212;DHT22;16228;48.800;9.002;2023-04-08T04:31:01;7.20;96.90
212;DHT22;16228;48.800;9.002;2023-04-08T04:33:29;7.20;96.90
212;DHT22;16228;48.800;9.002;2023-04-08T04:35:56;7.20;96.90
212;DHT22;16228;48.800;9.002;2023-04-08T04:38:23;7.30;96.90
212;DHT22;16228;48.800;9.002;2023-04-08T04:40:50;7.20;96.90
212;DHT22;16228;48.800;9.002;2023-04-08T04:43:17;7.30;96.90
212;DHT22;16228;48.800;9.002;2023-04-08T04:45:44;7.30;96.90
212;DHT22;16228;48.800;9.002;2023-04-08T04:48:11;7.30;96.90
212;DHT22;16228;48.800;9.002;2023-04-08T04:50:39;7.40;96.90
212;DHT22;16228;48.800;9.002;2023-04-08T04:53:06;7.40;96.90
212;DHT22;16228;48.800;9.002;2023-04-08T04:55:33;7.40;96.90
212;DHT22;16228;48.800;9.002;2023-04-08T04:58:00;7.50;96.90
212;DHT22;16228;48.800;9.002;2023-04-08T05:00:27;7.50;96.90
212;DHT22;16228;48.800;9.002;2023-04-08T05:02:54;7.50;96.90
212;DHT22;16228;48.800;9.002;2023-04-08T05:05:21;7.50;96.90
212;DHT22;16228;48.800;9.002;2023-04-08T05:07:49;7.50;96.90
212;DHT22;16228;48.800;9.002;2023-04-08T05:10:16;7.40;96.90
212;DHT22;16228;48.800;9.002;2023-04-08T05:12:43;7.40;96.90
212;DHT22;16228;48.800;9.002;2023-04-08T05:15:10;7.30;96.90
212;DHT22;16228;48.800;9.002;2023-04-08T05:17:37;7.40;96.90
212;DHT22;16228;48.800;9.002;2023-04-08T05:20:05;7.40;96.90
212;DHT22;16228;48.800;9.002;2023-04-08T05:22:32;7.30;96.90
212;DHT22;16228;48.800;9.002;2023-04-08T05:25:01;7.40;96.90
212;DHT22;16228;48.800;9.002;2023-04-08T05:27:28;7.40;96.90
212;DHT22;16228;48.800;9.002;2023-04-08T05:29:55;7.40;96.90
212;DHT22;16228;48.800;9.002;2023-04-08T05:32:22;7.40;96.90
212;DHT22;16228;48.800;9.002;2023-04-08T05:34:49;7.40;96.90
212;DHT22;16228;48.800;9.002;2023-04-08T05:37:16;7.40;96.90
212;DHT22;16228;48.800;9.002;2023-04-08T05:39:43;7.40;96.90
212;DHT22;16228;48.800;9.002;2023-04-08T05:42:12;7.40;96.90
212;DHT22;16228;48.800;9.002;2023-04-08T05:44:39;7.40;96.90
212;DHT22;16228;48.800;9.002;2023-04-08T05:47:08;7.50;96.90
212;DHT22;16228;48.800;9.002;2023-04-08T05:49:35;7.60;96.90
212;DHT22;16228;48.800;9.002;2023-04-08T05:52:02;7.70;96.90
212;DHT22;16228;48.800;9.002;2023-04-08T05:54:29;7.70;96.90
212;DHT22;16228;48.800;9.002;2023-04-08T05:56:56;7.80;96.90
212;DHT22;16228;48.800;9.002;2023-04-08T05:59:24;7.90;96.90
212;DHT22;16228;48.800;9.002;2023-04-08T06:01:51;8.00;96.90
212;DHT22;16228;48.800;9.002;2023-04-08T06:04:19;8.10;96.90
212;DHT22;16228;48.800;9.002;2023-04-08T06:06:46;8.20;96.90
212;DHT22;16228;48.800;9.002;2023-04-08T06:09:13;8.20;96.90
212;DHT22;16228;48.800;9.002;2023-04-08T06:11:40;8.30;96.90
212;DHT22;16228;48.800;9.002;2023-04-08T06:14:07;8.40;96.90
212;DHT22;16228;48.800;9.002;2023-04-08T06:16:36;8.30;96.90
212;DHT22;16228;48.800;9.002;2023-04-08T06:19:03;8.30;96.90
212;DHT22;16228;48.800;9.002;2023-04-08T06:21:29;8.30;96.90
212;DHT22;16228;48.800;9.002;2023-04-08T06:23:56;8.40;96.90
212;DHT22;16228;48.800;9.002;2023-04-08T06:26:23;8.40;96.90
212;DHT22;16228;48.800;9.002;2023-04-08T06:28:50;8.60;96.90
212;DHT22;16228;48.800;9.002;2023-04-08T06:31:17;8.70;96.90
212;DHT22;16228;48.800;9.002;2023-04-08T06:33:46;8.80;96.90
212;DHT22;16228;48.800;9.002;2023-04-08T06:36:13;8.90;96.90
212;DHT22;16228;48.800;9.002;2023-04-08T06:38:40;9.00;96.90
212;DHT22;16228;48.800;9.002;2023-04-08T06:41:07;9.10;96.90
212;DHT22;16228;48.800;9.002;2023-04-08T06:43:34;9.20;96.90
212;DHT22;16228;48.800;9.002;2023-04-08T06:46:02;9.30;96.90
212;DHT22;16228;48.800;9.002;2023-04-08T06:48:29;9.40;96.90
212;DHT22;16228;48.800;9.002;2023-04-08T06:50:58;9.40;96.90
212;DHT22;16228;48.800;9.002;2023-04-08T06:53:26;9.40;96.90
212;DHT22;16228;48.800;9.002;2023-04-08T06:55:54;9.40;96.90
212;DHT22;16228;48.800;9.002;2023-04-08T06:58:21;9.40;96.90
212;DHT22;16228;48.800;9.002;2023-04-08T07:00:48;9.40;96.90
212;DHT22;16228;48.800;9.002;2023-04-08T07:03:15;9.50;96.90
212;DHT22;16228;48.800;9.002;2023-04-08T07:05:41;9.50;96.90
212;DHT22;16228;48.800;9.002;2023-04-08T07:08:10;9.50;96.90
212;DHT22;16228;48.800;9.002;2023-04-08T07:10:37;9.50;96.90
212;DHT22;16228;48.800;9.002;2023-04-08T07:13:04;9.60;96.90
212;DHT22;16228;48.800;9.002;2023-04-08T07:15:31;9.50;96.90
212;DHT22;16228;48.800;9.002;2023-04-08T07:17:58;9.60;96.90
212;DHT22;16228;48.800;9.002;2023-04-08T07:20:25;9.60;96.90
212;DHT22;16228;48.800;9.002;2023-04-08T07:22:52;9.60;96.90
212;DHT22;16228;48.800;9.002;2023-04-08T07:25:20;9.70;96.90
212;DHT22;16228;48.800;9.002;2023-04-08T07:27:47;9.70;96.90
212;DHT22;16228;48.800;9.002;2023-04-08T07:30:14;9.70;96.90
212;DHT22;16228;48.800;9.002;2023-04-08T07:32:41;9.70;96.90
212;DHT22;16228;48.800;9.002;2023-04-08T07:35:08;9.60;96.90
212;DHT22;16228;48.800;9.002;2023-04-08T07:37:35;9.60;96.90
212;DHT22;16228;48.800;9.002;2023-04-08T07:40:02;9.70;96.90
212;DHT22;16228;48.800;9.002;2023-04-08T07:42:31;9.80;96.90
212;DHT22;16228;48.800;9.002;2023-04-08T07:44:58;9.80;96.90
212;DHT22;16228;48.800;9.002;2023-04-08T07:47:25;9.70;96.90
212;DHT22;16228;48.800;9.002;2023-04-08T07:49:52;9.80;96.90
212;DHT22;16228;48.800;9.002;2023-04-08T07:52:19;9.80;96.90
212;DHT22;16228;48.800;9.002;2023-04-08T07:54:46;10.00;96.90
212;DHT22;16228;48.800;9.002;2023-04-08T07:57:13;10.30;96.90
212;DHT22;16228;48.800;9.002;2023-04-08T07:59:41;10.60;96.90
212;DHT22;16228;48.800;9.002;2023-04-08T08:02:08;10.70;96.90
212;DHT22;16228;48.800;9.002;2023-04-08T08:04:35;11.10;96.90
212;DHT22;16228;48.800;9.002;2023-04-08T08:07:02;11.30;96.90
212;DHT22;16228;48.800;9.002;2023-04-08T08:09:29;11.30;96.90
212;DHT22;16228;48.800;9.002;2023-04-08T08:11:56;11.30;96.90
212;DHT22;16228;48.800;9.002;2023-04-08T08:14:23;11.30;96.90
212;DHT22;16228;48.800;9.002;2023-04-08T08:16:52;11.40;96.90
212;DHT22;16228;48.800;9.002;2023-04-08T08:19:20;11.50;96.90
212;DHT22;16228;48.800;9.002;2023-04-08T08:21:47;11.70;96.90
212;DHT22;16228;48.800;9.002;2023-04-08T08:24:15;11.70;96.90
212;DHT22;16228;48.800;9.002;2023-04-08T08:26:42;11.80;96.90
212;DHT22;16228;48.800;9.002;2023-04-08T08:29:11;11.70;96.90
212;DHT22;16228;48.800;9.002;2023-04-08T08:31:38;11.60;96.90
212;DHT22;16228;48.800;9.002;2023-04-08T08:34:07;11.60;96.90
212;DHT22;16228;48.800;9.002;2023-04-08T08:36:33;11.50;96.90
212;DHT22;16228;48.800;9.002;2023-04-08T08:39:00;11.40;96.90
212;DHT22;16228;48.800;9.002;2023-04-08T08:41:32;11.30;96.90
212;DHT22;16228;48.800;9.002;2023-04-08T08:43:59;11.40;96.90
212;DHT22;16228;48.800;9.002;2023-04-08T08:46:28;11.50;96.90
212;DHT22;16228;48.800;9.002;2023-04-08T08:48:56;11.60;96.90
212;DHT22;16228;48.800;9.002;2023-04-08T08:51:24;11.90;96.90
212;DHT22;16228;48.800;9.002;2023-04-08T08:53:53;12.30;96.90
212;DHT22;16228;48.800;9.002;2023-04-08T08:56:20;12.70;96.90
212;DHT22;16228;48.800;9.002;2023-04-08T08:58:47;13.00;96.90
212;DHT22;16228;48.800;9.002;2023-04-08T09:01:31;13.30;96.90
212;DHT22;16228;48.800;9.002;2023-04-08T09:04:09;13.40;96.90
212;DHT22;16228;48.800;9.002;2023-04-08T09:06:38;13.60;96.90
212;DHT22;16228;48.800;9.002;2023-04-08T09:09:05;13.60;96.90
212;DHT22;16228;48.800;9.002;2023-04-08T09:11:35;13.60;96.90
212;DHT22;16228;48.800;9.002;2023-04-08T09:14:03;13.90;96.90
212;DHT22;16228;48.800;9.002;2023-04-08T09:16:31;14.50;96.90
212;DHT22;16228;48.800;9.002;2023-04-08T09:19:07;14.70;96.90
212;DHT22;16228;48.800;9.002;2023-04-08T09:21:35;14.70;96.90
212;DHT22;16228;48.800;9.002;2023-04-08T09:24:03;14.70;96.90
212;DHT22;16228;48.800;9.002;2023-04-08T09:26:30;14.80;96.90
212;DHT22;16228;48.800;9.002;2023-04-08T09:28:58;15.60;96.90
212;DHT22;16228;48.800;9.002;2023-04-08T09:31:27;16.20;96.90
212;DHT22;16228;48.800;9.002;2023-04-08T09:33:56;16.60;95.90
212;DHT22;16228;48.800;9.002;2023-04-08T09:36:24;16.70;94.10
212;DHT22;16228;48.800;9.002;2023-04-08T09:38:52;16.60;93.70
212;DHT22;16228;48.800;9.002;2023-04-08T09:41:21;16.70;94.70
212;DHT22;16228;48.800;9.002;2023-04-08T09:43:50;17.20;94.10
212;DHT22;16228;48.800;9.002;2023-04-08T09:46:18;17.50;89.40
212;DHT22;16228;48.800;9.002;2023-04-08T09:48:52;17.10;89.40
212;DHT22;16228;48.800;9.002;2023-04-08T09:51:22;17.40;91.00
212;DHT22;16228;48.800;9.002;2023-04-08T09:53:55;17.70;87.40
212;DHT22;16228;48.800;9.002;2023-04-08T09:56:26;17.90;86.30
212;DHT22;16228;48.800;9.002;2023-04-08T09:58:58;17.80;84.40
212;DHT22;16228;48.800;9.002;2023-04-08T10:01:31;17.50;87.50
212;DHT22;16228;48.800;9.002;2023-04-08T10:04:04;17.20;87.10
212;DHT22;16228;48.800;9.002;2023-04-08T10:06:34;16.50;88.50
212;DHT22;16228;48.800;9.002;2023-04-08T10:09:02;16.00;91.20
212;DHT22;16228;48.800;9.002;2023-04-08T10:11:31;15.70;92.40
212;DHT22;16228;48.800;9.002;2023-04-08T10:13:58;15.60;90.70
212;DHT22;16228;48.800;9.002;2023-04-08T10:16:26;15.30;92.30
212;DHT22;16228;48.800;9.002;2023-04-08T10:18:53;15.30;92.80
212;DHT22;16228;48.800;9.002;2023-04-08T10:21:35;15.20;92.30
212;DHT22;16228;48.800;9.002;2023-04-08T10:24:06;15.20;93.90
212;DHT22;16228;48.800;9.002;2023-04-08T10:26:41;15.30;92.90
212;DHT22;16228;48.800;9.002;2023-04-08T10:29:33;15.30;94.90
212;DHT22;16228;48.800;9.002;2023-04-08T10:32:01;15.10;92.30
212;DHT22;16228;48.800;9.002;2023-04-08T10:34:28;15.10;95.00
212;DHT22;16228;48.800;9.002;2023-04-08T10:36:56;14.90;95.20
212;DHT22;16228;48.800;9.002;2023-04-08T10:39:27;14.80;95.10
212;DHT22;16228;48.800;9.002;2023-04-08T10:41:55;14.70;94.50
212;DHT22;16228;48.800;9.002;2023-04-08T10:44:23;14.40;96.60
212;DHT22;16228;48.800;9.002;2023-04-08T10:46:53;14.10;96.90
212;DHT22;16228;48.800;9.002;2023-04-08T10:49:20;13.90;96.90
212;DHT22;16228;48.800;9.002;2023-04-08T10:51:47;13.70;96.90
212;DHT22;16228;48.800;9.002;2023-04-08T10:54:16;13.40;96.90
212;DHT22;16228;48.800;9.002;2023-04-08T10:56:46;13.00;96.90
212;DHT22;16228;48.800;9.002;2023-04-08T10:59:15;12.80;96.90
212;DHT22;16228;48.800;9.002;2023-04-08T11:01:45;12.70;96.90
212;DHT22;16228;48.800;9.002;2023-04-08T11:04:13;12.70;96.90
212;DHT22;16228;48.800;9.002;2023-04-08T11:06:42;12.60;96.90
212;DHT22;16228;48.800;9.002;2023-04-08T11:09:09;12.50;96.90
212;DHT22;16228;48.800;9.002;2023-04-08T11:11:37;12.50;96.90
212;DHT22;16228;48.800;9.002;2023-04-08T11:14:04;12.40;96.90
212;DHT22;16228;48.800;9.002;2023-04-08T11:16:33;12.40;96.90
212;DHT22;16228;48.800;9.002;2023-04-08T11:19:02;12.40;96.90
212;DHT22;16228;48.800;9.002;2023-04-08T11:21:30;12.50;96.90
212;DHT22;16228;48.800;9.002;2023-04-08T11:23:57;12.30;96.90
212;DHT22;16228;48.800;9.002;2023-04-08T11:26:24;12.30;96.90
212;DHT22;16228;48.800;9.002;2023-04-08T11:28:54;12.30;96.90
212;DHT22;16228;48.800;9.002;2023-04-08T11:31:22;12.40;96.90
212;DHT22;16228;48.800;9.002;2023-04-08T11:33:52;12.40;96.90
212;DHT22;16228;48.800;9.002;2023-04-08T11:36:19;12.50;96.90
212;DHT22;16228;48.800;9.002;2023-04-08T11:38:47;12.50;96.90
212;DHT22;16228;48.800;9.002;2023-04-08T11:41:14;12.40;96.90
212;DHT22;16228;48.800;9.002;2023-04-08T11:43:52;12.30;96.90
212;DHT22;16228;48.800;9.002;2023-04-08T11:46:19;12.30;96.90
212;DHT22;16228;48.800;9.002;2023-04-08T11:49:04;12.40;96.90
212;DHT22;16228;48.800;9.002;2023-04-08T11:51:33;12.50;96.90
212;DHT22;16228;48.800;9.002;2023-04-08T11:54:03;12.60;96.40
212;DHT22;16228;48.800;9.002;2023-04-08T11:56:31;12.60;94.90
212;DHT22;16228;48.800;9.002;2023-04-08T11:59:09;12.60;94.30
212;DHT22;16228;48.800;9.002;2023-04-08T12:01:36;12.50;94.20
212;DHT22;16228;48.800;9.002;2023-04-08T12:04:05;12.50;93.90
212;DHT22;16228;48.800;9.002;2023-04-08T12:06:34;12.60;94.90
212;DHT22;16228;48.800;9.002;2023-04-08T12:09:01;12.60;94.50
212;DHT22;16228;48.800;9.002;2023-04-08T12:11:28;12.60;94.00
212;DHT22;16228;48.800;9.002;2023-04-08T12:13:55;12.60;94.50
212;DHT22;16228;48.800;9.002;2023-04-08T12:16:22;12.60;96.20
212;DHT22;16228;48.800;9.002;2023-04-08T12:18:49;12.70;94.10
212;DHT22;16228;48.800;9.002;2023-04-08T12:21:17;12.70;95.00
212;DHT22;16228;48.800;9.002;2023-04-08T12:23:44;12.70;96.70
212;DHT22;16228;48.800;9.002;2023-04-08T12:26:11;12.60;94.60
212;DHT22;16228;48.800;9.002;2023-04-08T12:28:39;12.40;96.10
212;DHT22;16228;48.800;9.002;2023-04-08T12:31:06;12.40;96.90
212;DHT22;16228;48.800;9.002;2023-04-08T12:33:33;12.30;96.90
212;DHT22;16228;48.800;9.002;2023-04-08T12:36:00;12.20;96.90
212;DHT22;16228;48.800;9.002;2023-04-08T12:38:28;12.10;96.90
212;DHT22;16228;48.800;9.002;2023-04-08T12:40:55;12.00;96.90
212;DHT22;16228;48.800;9.002;2023-04-08T12:43:22;11.90;96.90
212;DHT22;16228;48.800;9.002;2023-04-08T12:45:50;11.80;96.90
212;DHT22;16228;48.800;9.002;2023-04-08T12:48:17;11.80;96.90
212;DHT22;16228;48.800;9.002;2023-04-08T12:50:44;11.70;96.90
212;DHT22;16228;48.800;9.002;2023-04-08T12:53:11;11.70;96.90
212;DHT22;16228;48.800;9.002;2023-04-08T12:55:39;11.60;96.90
212;DHT22;16228;48.800;9.002;2023-04-08T12:58:06;11.60;96.90
212;DHT22;16228;48.800;9.002;2023-04-08T13:00:33;11.60;96.90
212;DHT22;16228;48.800;9.002;2023-04-08T13:03:03;11.50;96.90
212;DHT22;16228;48.800;9.002;2023-04-08T13:05:30;11.50;96.90
212;DHT22;16228;48.800;9.002;2023-04-08T13:07:57;11.60;96.90
212;DHT22;16228;48.800;9.002;2023-04-08T13:10:24;11.70;96.90
212;DHT22;16228;48.800;9.002;2023-04-08T13:12:53;11.80;96.90
212;DHT22;16228;48.800;9.002;2023-04-08T13:15:20;11.80;96.90
212;DHT22;16228;48.800;9.002;2023-04-08T13:17:47;11.80;96.90
212;DHT22;16228;48.800;9.002;2023-04-08T13:20:14;11.80;96.90
212;DHT22;16228;48.800;9.002;2023-04-08T13:22:41;11.80;96.90
212;DHT22;16228;48.800;9.002;2023-04-08T13:25:08;11.80;96.90
212;DHT22;16228;48.800;9.002;2023-04-08T13:27:35;11.80;96.90
212;DHT22;16228;48.800;9.002;2023-04-08T13:30:04;11.90;96.90
212;DHT22;16228;48.800;9.002;2023-04-08T13:32:32;12.00;96.90
212;DHT22;16228;48.800;9.002;2023-04-08T13:34:59;11.90;96.90
212;DHT22;16228;48.800;9.002;2023-04-08T13:37:26;12.00;96.90
212;DHT22;16228;48.800;9.002;2023-04-08T13:39:53;12.00;96.90
212;DHT22;16228;48.800;9.002;2023-04-08T13:42:20;12.00;96.90
212;DHT22;16228;48.800;9.002;2023-04-08T13:44:47;12.10;96.90
212;DHT22;16228;48.800;9.002;2023-04-08T13:47:15;12.00;96.90
212;DHT22;16228;48.800;9.002;2023-04-08T13:49:42;12.00;96.90
212;DHT22;16228;48.800;9.002;2023-04-08T13:52:09;12.10;96.90
212;DHT22;16228;48.800;9.002;2023-04-08T13:54:36;12.30;96.90
212;DHT22;16228;48.800;9.002;2023-04-08T13:57:03;12.50;96.90
212;DHT22;16228;48.800;9.002;2023-04-08T13:59:30;12.60;96.90
212;DHT22;16228;48.800;9.002;2023-04-08T14:01:57;12.60;96.90
212;DHT22;16228;48.800;9.002;2023-04-08T14:04:25;12.70;96.90
212;DHT22;16228;48.800;9.002;2023-04-08T14:06:52;12.70;96.90
212;DHT22;16228;48.800;9.002;2023-04-08T14:09:22;12.70;96.90
212;DHT22;16228;48.800;9.002;2023-04-08T14:11:49;12.70;96.90
212;DHT22;16228;48.800;9.002;2023-04-08T14:14:16;12.70;96.90
212;DHT22;16228;48.800;9.002;2023-04-08T14:16:43;12.70;96.90
212;DHT22;16228;48.800;9.002;2023-04-08T14:19:10;12.60;96.90
212;DHT22;16228;48.800;9.002;2023-04-08T14:21:38;12.70;96.90
212;DHT22;16228;48.800;9.002;2023-04-08T14:24:05;12.70;96.90
212;DHT22;16228;48.800;9.002;2023-04-08T14:26:32;12.90;96.90
212;DHT22;16228;48.800;9.002;2023-04-08T14:29:01;13.10;96.90
212;DHT22;16228;48.800;9.002;2023-04-08T14:31:29;13.20;96.60
212;DHT22;16228;48.800;9.002;2023-04-08T14:33:57;13.30;96.20
212;DHT22;16228;48.800;9.002;2023-04-08T14:36:24;13.40;95.40
212;DHT22;16228;48.800;9.002;2023-04-08T14:38:53;13.50;95.10
212;DHT22;16228;48.800;9.002;2023-04-08T14:41:20;13.60;94.80
212;DHT22;16228;48.800;9.002;2023-04-08T14:43:47;13.40;95.20
212;DHT22;16228;48.800;9.002;2023-04-08T14:46:14;13.40;96.50
212;DHT22;16228;48.800;9.002;2023-04-08T14:48:41;13.40;96.20
212;DHT22;16228;48.800;9.002;2023-04-08T14:51:08;13.60;96.10
212;DHT22;16228;48.800;9.002;2023-04-08T14:53:35;13.60;95.60
212;DHT22;16228;48.800;9.002;2023-04-08T14:56:04;13.80;96.40
212;DHT22;16228;48.800;9.002;2023-04-08T14:58:33;13.80;95.10
212;DHT22;16228;48.800;9.002;2023-04-08T15:01:00;14.00;93.60
212;DHT22;16228;48.800;9.002;2023-04-08T15:03:27;14.10;93.20
212;DHT22;16228;48.800;9.002;2023-04-08T15:05:54;13.90;92.80
212;DHT22;16228;48.800;9.002;2023-04-08T15:08:21;13.50;94.00
212;DHT22;16228;48.800;9.002;2023-04-08T15:10:48;13.10;95.90
212;DHT22;16228;48.800;9.002;2023-04-08T15:13:17;13.00;96.50
212;DHT22;16228;48.800;9.002;2023-04-08T15:15:43;13.00;96.00
212;DHT22;16228;48.800;9.002;2023-04-08T15:18:10;12.90;95.80
212;DHT22;16228;48.800;9.002;2023-04-08T15:20:37;13.00;96.00
212;DHT22;16228;48.800;9.002;2023-04-08T15:23:04;12.80;96.90
212;DHT22;16228;48.800;9.002;2023-04-08T15:25:32;12.70;96.90
212;DHT22;16228;48.800;9.002;2023-04-08T15:27:59;12.60;96.90
212;DHT22;16228;48.800;9.002;2023-04-08T15:30:28;12.40;96.90
212;DHT22;16228;48.800;9.002;2023-04-08T15:33:01;12.30;96.90
212;DHT22;16228;48.800;9.002;2023-04-08T15:35:28;12.30;96.90
212;DHT22;16228;48.800;9.002;2023-04-08T15:37:55;12.30;96.90
212;DHT22;16228;48.800;9.002;2023-04-08T15:40:22;12.30;96.90
212;DHT22;16228;48.800;9.002;2023-04-08T15:42:50;12.20;96.90
212;DHT22;16228;48.800;9.002;2023-04-08T15:45:17;12.10;96.90
212;DHT22;16228;48.800;9.002;2023-04-08T15:47:46;12.10;96.90
212;DHT22;16228;48.800;9.002;2023-04-08T15:50:13;12.00;96.90
212;DHT22;16228;48.800;9.002;2023-04-08T15:52:42;12.00;96.90
212;DHT22;16228;48.800;9.002;2023-04-08T15:55:09;12.00;96.90
212;DHT22;16228;48.800;9.002;2023-04-08T15:57:36;12.10;96.90
212;DHT22;16228;48.800;9.002;2023-04-08T16:00:06;12.00;96.90
212;DHT22;16228;48.800;9.002;2023-04-08T16:02:34;11.90;96.90
212;DHT22;16228;48.800;9.002;2023-04-08T16:05:02;11.80;96.90
212;DHT22;16228;48.800;9.002;2023-04-08T16:07:29;11.70;96.90
212;DHT22;16228;48.800;9.002;2023-04-08T16:09:56;11.70;96.90
212;DHT22;16228;48.800;9.002;2023-04-08T16:12:23;11.60;96.90
212;DHT22;16228;48.800;9.002;2023-04-08T16:14:50;11.50;96.90